sensor_id;sensor_type;location;lat;lon;timestamp;P1;durP1;ratioP1;P2;durP2;ratioP2
21517;SDS011;61765;45.794;24.150;2023-02-16T00:02:50;76.07;;;37.47;;
21517;SDS011;61765;45.794;24.150;2023-02-16T00:10:58;74.60;;;37.20;;
21517;SDS011;61765;45.794;24.150;2023-02-16T00:19:17;70.90;;;36.40;;
21517;SDS011;61765;45.794;24.150;2023-02-16T00:27:27;73.28;;;35.63;;
21517;SDS011;61765;45.794;24.150;2023-02-16T00:35:32;69.43;;;36.38;;
21517;SDS011;61765;45.794;24.150;2023-02-16T00:43:40;65.28;;;34.17;;
21517;SDS011;61765;45.794;24.150;2023-02-16T00:51:46;66.32;;;34.30;;
21517;SDS011;61765;45.794;24.150;2023-02-16T00:59:55;66.85;;;33.45;;
21517;SDS011;61765;45.794;24.150;2023-02-16T01:08:08;73.40;;;35.83;;
21517;SDS011;61765;45.794;24.150;2023-02-16T01:16:34;63.63;;;33.75;;
21517;SDS011;61765;45.794;24.150;2023-02-16T01:24:41;62.10;;;31.85;;
21517;SDS011;61765;45.794;24.150;2023-02-16T01:32:49;60.20;;;33.42;;
21517;SDS011;61765;45.794;24.150;2023-02-16T01:40:58;60.88;;;31.58;;
21517;SDS011;61765;45.794;24.150;2023-02-16T01:49:14;61.50;;;31.98;;
21517;SDS011;61765;45.794;24.150;2023-02-16T01:57:23;62.05;;;33.30;;
21517;SDS011;61765;45.794;24.150;2023-02-16T02:05:36;59.60;;;32.50;;
21517;SDS011;61765;45.794;24.150;2023-02-16T02:13:43;59.03;;;31.52;;
21517;SDS011;61765;45.794;24.150;2023-02-16T02:22:02;60.78;;;31.23;;
21517;SDS011;61765;45.794;24.150;2023-02-16T02:30:44;58.03;;;32.05;;
21517;SDS011;61765;45.794;24.150;2023-02-16T02:38:55;57.10;;;30.60;;
21517;SDS011;61765;45.794;24.150;2023-02-16T02:47:10;51.88;;;28.83;;
21517;SDS011;61765;45.794;24.150;2023-02-16T02:55:16;51.58;;;27.77;;
21517;SDS011;61765;45.794;24.150;2023-02-16T03:03:37;53.38;;;28.60;;
21517;SDS011;61765;45.794;24.150;2023-02-16T03:11:48;50.73;;;26.80;;
21517;SDS011;61765;45.794;24.150;2023-02-16T03:20:10;47.13;;;28.10;;
21517;SDS011;61765;45.794;24.150;2023-02-16T03:36:52;55.88;;;30.02;;
21517;SDS011;61765;45.794;24.150;2023-02-16T03:45:01;60.37;;;31.13;;
21517;SDS011;61765;45.794;24.150;2023-02-16T03:53:09;60.47;;;32.67;;
21517;SDS011;61765;45.794;24.150;2023-02-16T04:01:16;55.08;;;29.50;;
21517;SDS011;61765;45.794;24.150;2023-02-16T04:09:24;49.13;;;26.67;;
21517;SDS011;61765;45.794;24.150;2023-02-16T04:17:30;50.25;;;26.95;;
21517;SDS011;61765;45.794;24.150;2023-02-16T04:25:38;48.47;;;26.27;;
21517;SDS011;61765;45.794;24.150;2023-02-16T04:33:44;44.70;;;24.90;;
21517;SDS011;61765;45.794;24.150;2023-02-16T04:41:51;50.15;;;25.27;;
21517;SDS011;61765;45.794;24.150;2023-02-16T04:49:57;46.38;;;25.65;;
21517;SDS011;61765;45.794;24.150;2023-02-16T04:58:05;49.38;;;27.13;;
21517;SDS011;61765;45.794;24.150;2023-02-16T05:06:11;49.00;;;26.38;;
21517;SDS011;61765;45.794;24.150;2023-02-16T05:14:20;51.58;;;27.23;;
21517;SDS011;61765;45.794;24.150;2023-02-16T05:22:39;46.90;;;26.50;;
21517;SDS011;61765;45.794;24.150;2023-02-16T05:30:48;47.10;;;25.85;;
21517;SDS011;61765;45.794;24.150;2023-02-16T05:38:54;49.05;;;26.20;;
21517;SDS011;61765;45.794;24.150;2023-02-16T05:47:02;49.03;;;26.52;;
21517;SDS011;61765;45.794;24.150;2023-02-16T05:55:08;50.00;;;27.08;;
21517;SDS011;61765;45.794;24.150;2023-02-16T06:03:16;49.15;;;25.40;;
21517;SDS011;61765;45.794;24.150;2023-02-16T06:11:22;49.25;;;26.85;;
21517;SDS011;61765;45.794;24.150;2023-02-16T06:19:41;49.13;;;27.25;;
21517;SDS011;61765;45.794;24.150;2023-02-16T06:27:47;47.88;;;25.90;;
21517;SDS011;61765;45.794;24.150;2023-02-16T06:35:56;48.72;;;26.67;;
21517;SDS011;61765;45.794;24.150;2023-02-16T06:44:02;51.25;;;25.95;;
21517;SDS011;61765;45.794;24.150;2023-02-16T06:52:11;47.90;;;25.90;;
21517;SDS011;61765;45.794;24.150;2023-02-16T07:00:17;50.00;;;27.23;;
21517;SDS011;61765;45.794;24.150;2023-02-16T07:08:25;52.30;;;27.70;;
21517;SDS011;61765;45.794;24.150;2023-02-16T07:16:31;48.20;;;26.33;;
21517;SDS011;61765;45.794;24.150;2023-02-16T07:24:39;49.38;;;26.67;;
21517;SDS011;61765;45.794;24.150;2023-02-16T07:32:44;52.92;;;29.95;;
21517;SDS011;61765;45.794;24.150;2023-02-16T07:40:52;52.22;;;28.70;;
21517;SDS011;61765;45.794;24.150;2023-02-16T07:48:58;55.28;;;29.77;;
21517;SDS011;61765;45.794;24.150;2023-02-16T07:57:06;48.95;;;26.70;;
21517;SDS011;61765;45.794;24.150;2023-02-16T08:05:12;52.95;;;29.33;;
21517;SDS011;61765;45.794;24.150;2023-02-16T08:13:20;49.80;;;27.65;;
21517;SDS011;61765;45.794;24.150;2023-02-16T08:21:27;47.83;;;26.30;;
21517;SDS011;61765;45.794;24.150;2023-02-16T08:29:35;50.80;;;26.67;;
21517;SDS011;61765;45.794;24.150;2023-02-16T08:37:42;44.75;;;25.60;;
21517;SDS011;61765;45.794;24.150;2023-02-16T08:45:50;52.75;;;29.83;;
21517;SDS011;61765;45.794;24.150;2023-02-16T08:53:56;52.55;;;29.60;;
21517;SDS011;61765;45.794;24.150;2023-02-16T09:02:09;51.42;;;29.67;;
21517;SDS011;61765;45.794;24.150;2023-02-16T09:10:14;47.10;;;29.52;;
21517;SDS011;61765;45.794;24.150;2023-02-16T09:18:23;45.25;;;30.48;;
21517;SDS011;61765;45.794;24.150;2023-02-16T09:26:29;46.40;;;31.77;;
21517;SDS011;61765;45.794;24.150;2023-02-16T09:34:40;41.38;;;27.60;;
21517;SDS011;61765;45.794;24.150;2023-02-16T09:42:49;41.35;;;29.17;;
21517;SDS011;61765;45.794;24.150;2023-02-16T09:51:06;43.05;;;26.67;;
21517;SDS011;61765;45.794;24.150;2023-02-16T09:59:26;32.85;;;22.67;;
21517;SDS011;61765;45.794;24.150;2023-02-16T10:07:48;27.10;;;20.63;;
21517;SDS011;61765;45.794;24.150;2023-02-16T10:15:59;31.15;;;22.02;;
21517;SDS011;61765;45.794;24.150;2023-02-16T10:24:11;31.60;;;23.90;;
21517;SDS011;61765;45.794;24.150;2023-02-16T10:32:21;28.85;;;20.85;;
21517;SDS011;61765;45.794;24.150;2023-02-16T10:40:39;36.33;;;26.33;;
21517;SDS011;61765;45.794;24.150;2023-02-16T10:48:51;45.30;;;31.23;;
21517;SDS011;61765;45.794;24.150;2023-02-16T10:57:00;50.10;;;32.72;;
21517;SDS011;61765;45.794;24.150;2023-02-16T11:13:31;48.72;;;28.00;;
21517;SDS011;61765;45.794;24.150;2023-02-16T11:21:45;49.88;;;29.92;;
21517;SDS011;61765;45.794;24.150;2023-02-16T11:30:02;50.78;;;29.73;;
21517;SDS011;61765;45.794;24.150;2023-02-16T11:38:27;48.63;;;27.35;;
21517;SDS011;61765;45.794;24.150;2023-02-16T11:46:40;43.25;;;24.90;;
21517;SDS011;61765;45.794;24.150;2023-02-16T11:54:49;55.15;;;28.65;;
21517;SDS011;61765;45.794;24.150;2023-02-16T12:03:12;45.22;;;27.67;;
21517;SDS011;61765;45.794;24.150;2023-02-16T12:11:24;42.60;;;24.38;;
21517;SDS011;61765;45.794;24.150;2023-02-16T12:19:43;43.17;;;23.65;;
21517;SDS011;61765;45.794;24.150;2023-02-16T12:27:54;44.33;;;24.77;;
21517;SDS011;61765;45.794;24.150;2023-02-16T12:36:20;45.13;;;26.00;;
21517;SDS011;61765;45.794;24.150;2023-02-16T12:44:38;51.00;;;26.27;;
21517;SDS011;61765;45.794;24.150;2023-02-16T12:52:50;40.97;;;24.15;;
21517;SDS011;61765;45.794;24.150;2023-02-16T13:00:59;39.35;;;23.45;;
21517;SDS011;61765;45.794;24.150;2023-02-16T13:09:13;42.00;;;25.02;;
21517;SDS011;61765;45.794;24.150;2023-02-16T13:17:30;39.75;;;22.77;;
21517;SDS011;61765;45.794;24.150;2023-02-16T13:25:45;32.17;;;20.65;;
21517;SDS011;61765;45.794;24.150;2023-02-16T13:42:56;27.00;;;16.38;;
21517;SDS011;61765;45.794;24.150;2023-02-16T13:51:10;27.80;;;15.65;;
21517;SDS011;61765;45.794;24.150;2023-02-16T14:26:02;36.20;;;19.17;;
21517;SDS011;61765;45.794;24.150;2023-02-16T14:34:14;31.40;;;18.10;;
21517;SDS011;61765;45.794;24.150;2023-02-16T14:42:27;29.25;;;17.08;;
21517;SDS011;61765;45.794;24.150;2023-02-16T14:50:40;29.52;;;16.23;;
21517;SDS011;61765;45.794;24.150;2023-02-16T15:07:08;25.15;;;14.55;;
21517;SDS011;61765;45.794;24.150;2023-02-16T15:15:16;27.23;;;16.00;;
21517;SDS011;61765;45.794;24.150;2023-02-16T15:23:27;27.58;;;16.13;;
21517;SDS011;61765;45.794;24.150;2023-02-16T15:31:35;28.95;;;16.48;;
21517;SDS011;61765;45.794;24.150;2023-02-16T15:39:44;36.40;;;17.67;;
21517;SDS011;61765;45.794;24.150;2023-02-16T15:48:19;32.17;;;16.80;;
21517;SDS011;61765;45.794;24.150;2023-02-16T15:56:35;33.13;;;18.58;;
21517;SDS011;61765;45.794;24.150;2023-02-16T16:04:43;50.65;;;21.77;;
21517;SDS011;61765;45.794;24.150;2023-02-16T16:12:59;38.47;;;19.75;;
21517;SDS011;61765;45.794;24.150;2023-02-16T16:21:14;41.22;;;19.42;;
21517;SDS011;61765;45.794;24.150;2023-02-16T16:29:29;42.60;;;21.27;;
21517;SDS011;61765;45.794;24.150;2023-02-16T16:37:37;43.70;;;21.60;;
21517;SDS011;61765;45.794;24.150;2023-02-16T16:45:46;40.88;;;22.70;;
21517;SDS011;61765;45.794;24.150;2023-02-16T16:53:53;49.58;;;22.95;;
21517;SDS011;61765;45.794;24.150;2023-02-16T17:02:04;47.47;;;23.85;;
21517;SDS011;61765;45.794;24.150;2023-02-16T17:10:09;40.42;;;22.65;;
21517;SDS011;61765;45.794;24.150;2023-02-16T17:18:18;49.78;;;24.10;;
21517;SDS011;61765;45.794;24.150;2023-02-16T17:26:24;46.55;;;25.17;;
21517;SDS011;61765;45.794;24.150;2023-02-16T17:34:32;69.40;;;36.00;;
21517;SDS011;61765;45.794;24.150;2023-02-16T17:42:40;74.03;;;37.83;;
21517;SDS011;61765;45.794;24.150;2023-02-16T17:50:48;67.05;;;36.70;;
21517;SDS011;61765;45.794;24.150;2023-02-16T17:58:57;68.72;;;38.03;;
21517;SDS011;61765;45.794;24.150;2023-02-16T18:07:06;70.30;;;39.97;;
21517;SDS011;61765;45.794;24.150;2023-02-16T18:15:15;78.97;;;44.40;;
21517;SDS011;61765;45.794;24.150;2023-02-16T18:23:23;73.40;;;40.95;;
21517;SDS011;61765;45.794;24.150;2023-02-16T18:31:29;67.05;;;38.58;;
21517;SDS011;61765;45.794;24.150;2023-02-16T18:39:37;71.45;;;37.78;;
21517;SDS011;61765;45.794;24.150;2023-02-16T18:47:43;75.85;;;42.22;;
21517;SDS011;61765;45.794;24.150;2023-02-16T18:55:51;79.00;;;44.72;;
21517;SDS011;61765;45.794;24.150;2023-02-16T19:03:57;91.15;;;48.65;;
21517;SDS011;61765;45.794;24.150;2023-02-16T19:12:06;89.53;;;47.00;;
21517;SDS011;61765;45.794;24.150;2023-02-16T19:20:12;95.85;;;51.28;;
21517;SDS011;61765;45.794;24.150;2023-02-16T19:28:21;87.97;;;45.78;;
21517;SDS011;61765;45.794;24.150;2023-02-16T19:36:28;74.95;;;38.08;;
21517;SDS011;61765;45.794;24.150;2023-02-16T19:44:37;66.97;;;36.03;;
21517;SDS011;61765;45.794;24.150;2023-02-16T19:52:42;61.75;;;32.17;;
21517;SDS011;61765;45.794;24.150;2023-02-16T20:00:51;58.65;;;31.30;;
21517;SDS011;61765;45.794;24.150;2023-02-16T20:08:58;60.72;;;31.88;;
21517;SDS011;61765;45.794;24.150;2023-02-16T20:17:06;97.07;;;50.70;;
21517;SDS011;61765;45.794;24.150;2023-02-16T20:25:13;125.50;;;66.35;;
21517;SDS011;61765;45.794;24.150;2023-02-16T20:33:21;132.57;;;69.03;;
21517;SDS011;61765;45.794;24.150;2023-02-16T20:41:27;127.22;;;63.47;;
21517;SDS011;61765;45.794;24.150;2023-02-16T20:49:35;110.90;;;58.75;;
21517;SDS011;61765;45.794;24.150;2023-02-16T20:57:41;109.93;;;58.08;;
21517;SDS011;61765;45.794;24.150;2023-02-16T21:05:49;102.72;;;54.63;;
21517;SDS011;61765;45.794;24.150;2023-02-16T21:13:55;97.03;;;53.72;;
21517;SDS011;61765;45.794;24.150;2023-02-16T21:22:05;96.75;;;51.72;;
21517;SDS011;61765;45.794;24.150;2023-02-16T21:30:11;97.47;;;49.35;;
21517;SDS011;61765;45.794;24.150;2023-02-16T21:38:20;89.57;;;49.58;;
21517;SDS011;61765;45.794;24.150;2023-02-16T21:46:26;89.47;;;47.50;;
21517;SDS011;61765;45.794;24.150;2023-02-16T21:54:35;84.07;;;45.08;;
21517;SDS011;61765;45.794;24.150;2023-02-16T22:02:53;83.65;;;45.65;;
21517;SDS011;61765;45.794;24.150;2023-02-16T22:11:05;110.40;;;56.15;;
21517;SDS011;61765;45.794;24.150;2023-02-16T22:19:12;93.78;;;51.78;;
21517;SDS011;61765;45.794;24.150;2023-02-16T22:27:21;106.80;;;55.45;;
21517;SDS011;61765;45.794;24.150;2023-02-16T22:35:26;114.28;;;58.40;;
21517;SDS011;61765;45.794;24.150;2023-02-16T22:43:34;99.75;;;52.47;;
21517;SDS011;61765;45.794;24.150;2023-02-16T22:51:41;100.40;;;51.47;;
21517;SDS011;61765;45.794;24.150;2023-02-16T22:59:49;102.43;;;51.95;;
21517;SDS011;61765;45.794;24.150;2023-02-16T23:07:54;105.85;;;53.20;;
21517;SDS011;61765;45.794;24.150;2023-02-16T23:16:04;119.95;;;58.47;;
21517;SDS011;61765;45.794;24.150;2023-02-16T23:24:12;117.88;;;56.70;;
21517;SDS011;61765;45.794;24.150;2023-02-16T23:32:22;94.45;;;47.53;;
21517;SDS011;61765;45.794;24.150;2023-02-16T23:40:27;91.90;;;46.30;;
21517;SDS011;61765;45.794;24.150;2023-02-16T23:48:35;94.88;;;49.53;;
21517;SDS011;61765;45.794;24.150;2023-02-16T23:56:41;97.85;;;47.65;;
